Ana Sayfa
METAR-TAF:

METAR-TAF

Havaalanları :

Diyarbakır Havalimanı

Diyarbakır, Türkiye

Enlem: 37-53N, Boylam: 040-11E, yükseklik: 686 m

Güncel hava durumu gözlemi

Rapor saat 11:20 UTC de 36 dakika önce yapıldı.
Rüzgar değişken yönden 4 kt
Sıcaklık 17°C
Nem 39%
Basınç 1016 hPa
Görüş mesafesi 10 km veya daha fazla
1500 m altında bulut yok ve kümülonimbus yok

METAR: LTCC 211120Z VRB04KT CAVOK 17/03 Q1016 NOSIG RMK RWY16 27001KT

Saat: 14:56 (11:56 UTC)

Tahmin

Rapor saat 10:40 UTC de 1 saat ve 16 dakika önce yapıldı.
Ayın 21'si saat 12 UTC'den ayın 22'si saat 12 UTC'ye kadar geçerli Tahmin
Rüzgar değişken yönden 2 kt
Görüş mesafesi 10 km veya daha fazla
1500 m altında bulut yok ve kümülonimbus yok

TAF: LTCC 211040Z 2112/2212 VRB02KT CAVOK

4.000'den fazla havaalanı için hava durumu gözlemleri ve tahminleri (METAR ve TAF raporları).

Kullanılabilir istasyonlar harita üzerinde sarı ve kırmızı noktalarla gösterilir.

İstasyonun adını görmek için fareyi noktanın üzerinde gezdirin.

Sonrasında hava gözlem ve tahminlerini görmek için tıklayın.

Haritayı değiştirmek için: yaklaştırmak için siyah artı işaretli yeşil düğmeye ve uzaklaştırmak için de eksi işaretli düğmeye hızla tıklayın; bitişik haritalar için yeşil okları kullanın.


METAR-TAF: